sensor_id;sensor_type;location;lat;lon;timestamp;temperature;humidity
11989;DHT22;6054;50.966;7.094;2023-04-01T00:01:10;18.50;51.40
11989;DHT22;6054;50.966;7.094;2023-04-01T00:03:39;18.60;51.20
11989;DHT22;6054;50.966;7.094;2023-04-01T00:06:06;18.50;50.50
11989;DHT22;6054;50.966;7.094;2023-04-01T00:08:33;18.60;50.50
11989;DHT22;6054;50.966;7.094;2023-04-01T00:10:59;18.50;50.00
11989;DHT22;6054;50.966;7.094;2023-04-01T00:13:27;18.50;50.00
11989;DHT22;6054;50.966;7.094;2023-04-01T00:15:56;18.60;50.80
11989;DHT22;6054;50.966;7.094;2023-04-01T00:18:23;18.60;50.80
11989;DHT22;6054;50.966;7.094;2023-04-01T00:20:51;18.60;51.10
11989;DHT22;6054;50.966;7.094;2023-04-01T00:23:19;18.60;50.50
11989;DHT22;6054;50.966;7.094;2023-04-01T00:25:46;18.60;50.50
11989;DHT22;6054;50.966;7.094;2023-04-01T00:28:13;18.60;50.20
11989;DHT22;6054;50.966;7.094;2023-04-01T00:30:40;18.60;50.10
11989;DHT22;6054;50.966;7.094;2023-04-01T00:33:08;18.50;50.20
11989;DHT22;6054;50.966;7.094;2023-04-01T00:35:35;18.70;50.60
11989;DHT22;6054;50.966;7.094;2023-04-01T00:38:02;18.40;50.30
11989;DHT22;6054;50.966;7.094;2023-04-01T00:40:32;18.40;51.00
11989;DHT22;6054;50.966;7.094;2023-04-01T00:43:00;18.40;52.00
11989;DHT22;6054;50.966;7.094;2023-04-01T00:45:33;18.40;52.10
11989;DHT22;6054;50.966;7.094;2023-04-01T00:48:03;18.40;52.20
11989;DHT22;6054;50.966;7.094;2023-04-01T00:50:33;18.40;52.10
11989;DHT22;6054;50.966;7.094;2023-04-01T00:53:01;18.40;52.20
11989;DHT22;6054;50.966;7.094;2023-04-01T00:55:31;18.40;52.00
11989;DHT22;6054;50.966;7.094;2023-04-01T00:57:59;18.40;52.50
11989;DHT22;6054;50.966;7.094;2023-04-01T01:00:26;18.40;52.40
11989;DHT22;6054;50.966;7.094;2023-04-01T01:02:53;18.40;52.30
11989;DHT22;6054;50.966;7.094;2023-04-01T01:05:29;18.30;52.50
11989;DHT22;6054;50.966;7.094;2023-04-01T01:08:07;18.30;53.00
11989;DHT22;6054;50.966;7.094;2023-04-01T01:10:39;18.30;53.30
11989;DHT22;6054;50.966;7.094;2023-04-01T01:13:10;18.00;52.90
11989;DHT22;6054;50.966;7.094;2023-04-01T01:15:41;18.50;52.80
11989;DHT22;6054;50.966;7.094;2023-04-01T01:18:18;18.30;53.50
11989;DHT22;6054;50.966;7.094;2023-04-01T01:20:57;18.30;53.50
11989;DHT22;6054;50.966;7.094;2023-04-01T01:26:52;18.30;53.20
11989;DHT22;6054;50.966;7.094;2023-04-01T01:29:44;18.20;53.30
11989;DHT22;6054;50.966;7.094;2023-04-01T01:35:16;18.20;53.00
11989;DHT22;6054;50.966;7.094;2023-04-01T01:37:46;18.20;53.00
11989;DHT22;6054;50.966;7.094;2023-04-01T01:40:16;18.20;53.50
11989;DHT22;6054;50.966;7.094;2023-04-01T01:42:46;18.20;52.80
11989;DHT22;6054;50.966;7.094;2023-04-01T01:45:15;18.20;53.20
11989;DHT22;6054;50.966;7.094;2023-04-01T01:47:43;18.20;53.20
11989;DHT22;6054;50.966;7.094;2023-04-01T01:50:13;18.20;53.40
11989;DHT22;6054;50.966;7.094;2023-04-01T01:52:41;18.30;53.10
11989;DHT22;6054;50.966;7.094;2023-04-01T01:55:25;18.30;53.60
11989;DHT22;6054;50.966;7.094;2023-04-01T01:57:52;18.30;53.20
11989;DHT22;6054;50.966;7.094;2023-04-01T02:00:20;18.30;53.10
11989;DHT22;6054;50.966;7.094;2023-04-01T02:02:48;18.30;53.80
11989;DHT22;6054;50.966;7.094;2023-04-01T02:05:18;18.20;53.40
11989;DHT22;6054;50.966;7.094;2023-04-01T02:07:49;18.40;54.00
11989;DHT22;6054;50.966;7.094;2023-04-01T02:10:20;18.20;54.10
11989;DHT22;6054;50.966;7.094;2023-04-01T02:12:48;18.10;54.10
11989;DHT22;6054;50.966;7.094;2023-04-01T02:15:17;18.50;54.60
11989;DHT22;6054;50.966;7.094;2023-04-01T02:17:46;18.10;54.10
11989;DHT22;6054;50.966;7.094;2023-04-01T02:20:17;18.00;54.20
11989;DHT22;6054;50.966;7.094;2023-04-01T02:22:47;18.00;54.50
11989;DHT22;6054;50.966;7.094;2023-04-01T02:25:18;17.90;54.30
11989;DHT22;6054;50.966;7.094;2023-04-01T02:27:47;17.90;54.60
11989;DHT22;6054;50.966;7.094;2023-04-01T02:30:15;18.00;54.40
11989;DHT22;6054;50.966;7.094;2023-04-01T02:32:43;18.10;55.20
11989;DHT22;6054;50.966;7.094;2023-04-01T02:35:12;17.80;55.30
11989;DHT22;6054;50.966;7.094;2023-04-01T02:37:43;17.80;55.50
11989;DHT22;6054;50.966;7.094;2023-04-01T02:40:12;17.80;55.60
11989;DHT22;6054;50.966;7.094;2023-04-01T02:42:39;17.80;55.80
11989;DHT22;6054;50.966;7.094;2023-04-01T02:45:07;17.70;55.70
11989;DHT22;6054;50.966;7.094;2023-04-01T02:47:33;17.70;56.10
11989;DHT22;6054;50.966;7.094;2023-04-01T02:50:00;17.70;56.10
11989;DHT22;6054;50.966;7.094;2023-04-01T02:52:28;17.70;56.10
11989;DHT22;6054;50.966;7.094;2023-04-01T02:54:57;17.70;56.40
11989;DHT22;6054;50.966;7.094;2023-04-01T02:57:24;17.60;55.80
11989;DHT22;6054;50.966;7.094;2023-04-01T02:59:51;17.70;56.30
11989;DHT22;6054;50.966;7.094;2023-04-01T03:02:18;17.50;56.40
11989;DHT22;6054;50.966;7.094;2023-04-01T03:04:45;17.50;56.30
11989;DHT22;6054;50.966;7.094;2023-04-01T03:07:12;17.40;56.30
11989;DHT22;6054;50.966;7.094;2023-04-01T03:09:39;17.40;56.80
11989;DHT22;6054;50.966;7.094;2023-04-01T03:12:07;17.40;56.50
11989;DHT22;6054;50.966;7.094;2023-04-01T03:14:34;17.30;56.60
11989;DHT22;6054;50.966;7.094;2023-04-01T03:17:01;17.30;56.80
11989;DHT22;6054;50.966;7.094;2023-04-01T03:19:27;17.30;57.00
11989;DHT22;6054;50.966;7.094;2023-04-01T03:21:54;17.30;57.00
11989;DHT22;6054;50.966;7.094;2023-04-01T03:24:21;17.30;57.00
11989;DHT22;6054;50.966;7.094;2023-04-01T03:26:48;17.30;57.10
11989;DHT22;6054;50.966;7.094;2023-04-01T03:29:16;17.30;57.00
11989;DHT22;6054;50.966;7.094;2023-04-01T03:31:43;17.30;57.20
11989;DHT22;6054;50.966;7.094;2023-04-01T03:34:10;17.30;57.10
11989;DHT22;6054;50.966;7.094;2023-04-01T03:36:37;17.30;57.20
11989;DHT22;6054;50.966;7.094;2023-04-01T03:39:04;17.20;57.30
11989;DHT22;6054;50.966;7.094;2023-04-01T03:41:31;17.20;57.60
11989;DHT22;6054;50.966;7.094;2023-04-01T03:43:58;17.20;57.70
11989;DHT22;6054;50.966;7.094;2023-04-01T03:46:26;17.30;57.40
11989;DHT22;6054;50.966;7.094;2023-04-01T03:48:53;17.30;57.40
11989;DHT22;6054;50.966;7.094;2023-04-01T03:51:20;17.20;57.30
11989;DHT22;6054;50.966;7.094;2023-04-01T03:53:47;17.20;57.50
11989;DHT22;6054;50.966;7.094;2023-04-01T03:56:13;17.20;57.70
11989;DHT22;6054;50.966;7.094;2023-04-01T03:58:40;17.20;57.80
11989;DHT22;6054;50.966;7.094;2023-04-01T04:01:14;17.40;57.80
11989;DHT22;6054;50.966;7.094;2023-04-01T04:03:43;17.30;58.20
11989;DHT22;6054;50.966;7.094;2023-04-01T04:06:11;17.60;58.30
11989;DHT22;6054;50.966;7.094;2023-04-01T04:08:38;17.30;58.10
11989;DHT22;6054;50.966;7.094;2023-04-01T04:11:05;17.30;58.20
11989;DHT22;6054;50.966;7.094;2023-04-01T04:13:32;17.30;58.10
11989;DHT22;6054;50.966;7.094;2023-04-01T04:15:59;17.30;57.90
11989;DHT22;6054;50.966;7.094;2023-04-01T04:18:25;17.30;58.10
11989;DHT22;6054;50.966;7.094;2023-04-01T04:20:54;17.40;57.80
11989;DHT22;6054;50.966;7.094;2023-04-01T04:23:21;17.30;57.70
11989;DHT22;6054;50.966;7.094;2023-04-01T04:25:56;17.40;58.00
11989;DHT22;6054;50.966;7.094;2023-04-01T04:28:23;17.30;57.90
11989;DHT22;6054;50.966;7.094;2023-04-01T04:30:51;17.30;57.90
11989;DHT22;6054;50.966;7.094;2023-04-01T04:33:18;17.40;57.70
11989;DHT22;6054;50.966;7.094;2023-04-01T04:35:44;17.30;57.60
11989;DHT22;6054;50.966;7.094;2023-04-01T04:38:13;17.40;57.60
11989;DHT22;6054;50.966;7.094;2023-04-01T04:40:41;17.30;57.50
11989;DHT22;6054;50.966;7.094;2023-04-01T04:43:10;17.30;57.80
11989;DHT22;6054;50.966;7.094;2023-04-01T04:45:37;17.30;57.70
11989;DHT22;6054;50.966;7.094;2023-04-01T04:48:04;17.30;57.40
11989;DHT22;6054;50.966;7.094;2023-04-01T04:50:31;17.30;57.70
11989;DHT22;6054;50.966;7.094;2023-04-01T04:52:57;17.30;57.50
11989;DHT22;6054;50.966;7.094;2023-04-01T04:55:25;17.30;57.60
11989;DHT22;6054;50.966;7.094;2023-04-01T04:57:52;17.30;57.60
11989;DHT22;6054;50.966;7.094;2023-04-01T05:00:19;17.30;57.70
11989;DHT22;6054;50.966;7.094;2023-04-01T05:02:46;17.30;57.50
11989;DHT22;6054;50.966;7.094;2023-04-01T05:05:13;17.30;57.60
11989;DHT22;6054;50.966;7.094;2023-04-01T05:07:39;17.30;57.50
11989;DHT22;6054;50.966;7.094;2023-04-01T05:10:07;17.30;57.50
11989;DHT22;6054;50.966;7.094;2023-04-01T05:12:35;17.30;57.80
11989;DHT22;6054;50.966;7.094;2023-04-01T05:15:05;17.30;57.70
11989;DHT22;6054;50.966;7.094;2023-04-01T05:17:32;17.40;58.10
11989;DHT22;6054;50.966;7.094;2023-04-01T05:19:58;17.30;57.90
11989;DHT22;6054;50.966;7.094;2023-04-01T05:22:25;17.30;57.80
11989;DHT22;6054;50.966;7.094;2023-04-01T05:24:52;17.30;58.10
11989;DHT22;6054;50.966;7.094;2023-04-01T05:27:19;17.30;58.10
11989;DHT22;6054;50.966;7.094;2023-04-01T05:29:47;17.30;58.10
11989;DHT22;6054;50.966;7.094;2023-04-01T05:32:14;17.30;58.30
11989;DHT22;6054;50.966;7.094;2023-04-01T05:34:41;17.30;58.40
11989;DHT22;6054;50.966;7.094;2023-04-01T05:37:08;17.30;58.30
11989;DHT22;6054;50.966;7.094;2023-04-01T05:39:36;17.30;58.30
11989;DHT22;6054;50.966;7.094;2023-04-01T05:42:05;17.30;58.50
11989;DHT22;6054;50.966;7.094;2023-04-01T05:44:32;17.30;58.70
11989;DHT22;6054;50.966;7.094;2023-04-01T05:47:01;17.30;58.50
11989;DHT22;6054;50.966;7.094;2023-04-01T05:49:28;17.30;58.30
11989;DHT22;6054;50.966;7.094;2023-04-01T05:51:55;17.30;58.30
11989;DHT22;6054;50.966;7.094;2023-04-01T05:54:22;17.30;58.40
11989;DHT22;6054;50.966;7.094;2023-04-01T05:56:48;17.30;58.40
11989;DHT22;6054;50.966;7.094;2023-04-01T05:59:16;17.30;58.30
11989;DHT22;6054;50.966;7.094;2023-04-01T06:01:43;17.30;58.40
11989;DHT22;6054;50.966;7.094;2023-04-01T06:04:13;17.30;58.40
11989;DHT22;6054;50.966;7.094;2023-04-01T06:06:40;17.30;58.60
11989;DHT22;6054;50.966;7.094;2023-04-01T06:09:12;17.20;58.30
11989;DHT22;6054;50.966;7.094;2023-04-01T06:11:55;17.20;58.70
11989;DHT22;6054;50.966;7.094;2023-04-01T06:14:31;17.20;58.80
11989;DHT22;6054;50.966;7.094;2023-04-01T06:17:18;17.20;58.70
11989;DHT22;6054;50.966;7.094;2023-04-01T06:19:57;17.20;58.90
11989;DHT22;6054;50.966;7.094;2023-04-01T06:22:45;17.10;58.90
11989;DHT22;6054;50.966;7.094;2023-04-01T06:25:34;17.10;59.10
11989;DHT22;6054;50.966;7.094;2023-04-01T06:28:32;17.10;59.30
11989;DHT22;6054;50.966;7.094;2023-04-01T06:31:12;17.10;59.50
11989;DHT22;6054;50.966;7.094;2023-04-01T06:33:52;17.10;59.60
11989;DHT22;6054;50.966;7.094;2023-04-01T06:36:42;17.10;59.80
11989;DHT22;6054;50.966;7.094;2023-04-01T06:42:26;17.20;60.00
11989;DHT22;6054;50.966;7.094;2023-04-01T06:45:05;17.20;60.00
11989;DHT22;6054;50.966;7.094;2023-04-01T06:47:47;17.20;60.00
11989;DHT22;6054;50.966;7.094;2023-04-01T06:50:23;17.20;60.00
11989;DHT22;6054;50.966;7.094;2023-04-01T06:52:58;17.20;60.00
11989;DHT22;6054;50.966;7.094;2023-04-01T06:55:34;17.30;60.00
11989;DHT22;6054;50.966;7.094;2023-04-01T06:58:05;17.20;59.50
11989;DHT22;6054;50.966;7.094;2023-04-01T07:00:36;17.20;59.50
11989;DHT22;6054;50.966;7.094;2023-04-01T07:03:14;17.20;59.70
11989;DHT22;6054;50.966;7.094;2023-04-01T07:05:42;17.20;59.70
11989;DHT22;6054;50.966;7.094;2023-04-01T07:08:15;17.20;59.70
11989;DHT22;6054;50.966;7.094;2023-04-01T07:10:47;17.30;60.00
11989;DHT22;6054;50.966;7.094;2023-04-01T07:13:18;17.30;59.80
11989;DHT22;6054;50.966;7.094;2023-04-01T07:16:03;17.30;59.70
11989;DHT22;6054;50.966;7.094;2023-04-01T07:18:37;17.20;59.80
11989;DHT22;6054;50.966;7.094;2023-04-01T07:21:13;17.30;59.70
11989;DHT22;6054;50.966;7.094;2023-04-01T07:23:45;17.20;59.70
11989;DHT22;6054;50.966;7.094;2023-04-01T07:26:17;17.20;59.70
11989;DHT22;6054;50.966;7.094;2023-04-01T07:28:44;17.20;59.70
11989;DHT22;6054;50.966;7.094;2023-04-01T07:31:18;17.30;59.70
11989;DHT22;6054;50.966;7.094;2023-04-01T07:33:52;17.30;60.00
11989;DHT22;6054;50.966;7.094;2023-04-01T07:36:26;17.30;60.00
11989;DHT22;6054;50.966;7.094;2023-04-01T07:39:01;17.30;60.00
11989;DHT22;6054;50.966;7.094;2023-04-01T07:41:35;17.30;59.80
11989;DHT22;6054;50.966;7.094;2023-04-01T07:44:09;17.20;59.60
11989;DHT22;6054;50.966;7.094;2023-04-01T07:46:56;17.20;59.70
11989;DHT22;6054;50.966;7.094;2023-04-01T07:49:30;17.20;59.80
11989;DHT22;6054;50.966;7.094;2023-04-01T07:52:05;17.20;59.90
11989;DHT22;6054;50.966;7.094;2023-04-01T07:54:39;17.20;60.10
11989;DHT22;6054;50.966;7.094;2023-04-01T07:57:14;17.20;60.00
11989;DHT22;6054;50.966;7.094;2023-04-01T07:59:49;17.10;60.10
11989;DHT22;6054;50.966;7.094;2023-04-01T08:02:32;17.10;60.30
11989;DHT22;6054;50.966;7.094;2023-04-01T08:05:07;17.10;60.30
11989;DHT22;6054;50.966;7.094;2023-04-01T08:07:43;17.20;60.40
11989;DHT22;6054;50.966;7.094;2023-04-01T08:10:19;17.10;60.00
11989;DHT22;6054;50.966;7.094;2023-04-01T08:12:52;17.10;60.00
11989;DHT22;6054;50.966;7.094;2023-04-01T08:15:28;17.10;60.20
11989;DHT22;6054;50.966;7.094;2023-04-01T08:18:11;17.10;60.10
11989;DHT22;6054;50.966;7.094;2023-04-01T08:20:41;17.20;60.50
11989;DHT22;6054;50.966;7.094;2023-04-01T08:23:14;17.40;60.80
11989;DHT22;6054;50.966;7.094;2023-04-01T08:25:48;17.10;60.30
11989;DHT22;6054;50.966;7.094;2023-04-01T08:28:22;17.20;60.80
11989;DHT22;6054;50.966;7.094;2023-04-01T08:30:53;17.10;61.00
11989;DHT22;6054;50.966;7.094;2023-04-01T08:33:24;17.20;61.10
11989;DHT22;6054;50.966;7.094;2023-04-01T08:35:55;17.20;60.70
11989;DHT22;6054;50.966;7.094;2023-04-01T08:38:26;17.20;60.40
11989;DHT22;6054;50.966;7.094;2023-04-01T08:40:58;17.20;60.60
11989;DHT22;6054;50.966;7.094;2023-04-01T08:43:55;17.10;60.70
11989;DHT22;6054;50.966;7.094;2023-04-01T08:49:56;17.10;60.60
11989;DHT22;6054;50.966;7.094;2023-04-01T08:52:34;17.10;60.60
11989;DHT22;6054;50.966;7.094;2023-04-01T08:55:31;17.10;60.70
11989;DHT22;6054;50.966;7.094;2023-04-01T08:58:30;17.10;60.90
11989;DHT22;6054;50.966;7.094;2023-04-01T09:01:11;17.20;61.00
11989;DHT22;6054;50.966;7.094;2023-04-01T09:06:42;17.10;61.10
11989;DHT22;6054;50.966;7.094;2023-04-01T09:09:40;17.10;61.50
11989;DHT22;6054;50.966;7.094;2023-04-01T09:12:30;17.10;61.60
11989;DHT22;6054;50.966;7.094;2023-04-01T09:15:32;17.10;61.50
11989;DHT22;6054;50.966;7.094;2023-04-01T09:18:12;17.10;61.20
11989;DHT22;6054;50.966;7.094;2023-04-01T09:20:49;17.10;61.40
11989;DHT22;6054;50.966;7.094;2023-04-01T09:23:33;17.10;61.30
11989;DHT22;6054;50.966;7.094;2023-04-01T09:26:30;17.10;60.70
11989;DHT22;6054;50.966;7.094;2023-04-01T09:29:05;17.10;61.10
11989;DHT22;6054;50.966;7.094;2023-04-01T09:31:52;17.00;61.10
11989;DHT22;6054;50.966;7.094;2023-04-01T09:34:52;17.00;61.20
11989;DHT22;6054;50.966;7.094;2023-04-01T09:37:21;17.00;61.30
11989;DHT22;6054;50.966;7.094;2023-04-01T09:43:02;17.00;61.50
11989;DHT22;6054;50.966;7.094;2023-04-01T09:45:43;17.00;61.50
11989;DHT22;6054;50.966;7.094;2023-04-01T09:48:31;17.10;61.30
11989;DHT22;6054;50.966;7.094;2023-04-01T09:51:08;17.10;61.30
11989;DHT22;6054;50.966;7.094;2023-04-01T09:53:53;17.00;61.50
11989;DHT22;6054;50.966;7.094;2023-04-01T09:56:52;17.00;61.70
11989;DHT22;6054;50.966;7.094;2023-04-01T09:59:47;17.50;62.10
11989;DHT22;6054;50.966;7.094;2023-04-01T10:05:52;17.10;61.60
11989;DHT22;6054;50.966;7.094;2023-04-01T10:08:51;17.10;61.70
11989;DHT22;6054;50.966;7.094;2023-04-01T10:15:18;17.00;61.70
11989;DHT22;6054;50.966;7.094;2023-04-01T10:21:06;17.10;61.80
11989;DHT22;6054;50.966;7.094;2023-04-01T10:26:53;17.10;61.80
11989;DHT22;6054;50.966;7.094;2023-04-01T10:29:41;17.10;61.80
11989;DHT22;6054;50.966;7.094;2023-04-01T10:35:20;17.10;61.80
11989;DHT22;6054;50.966;7.094;2023-04-01T10:41:02;17.10;61.80
11989;DHT22;6054;50.966;7.094;2023-04-01T10:44:10;17.10;61.90
11989;DHT22;6054;50.966;7.094;2023-04-01T10:49:44;17.10;61.70
11989;DHT22;6054;50.966;7.094;2023-04-01T10:52:55;17.10;61.80
11989;DHT22;6054;50.966;7.094;2023-04-01T10:56:00;17.10;62.40
11989;DHT22;6054;50.966;7.094;2023-04-01T11:05:29;17.30;62.50
11989;DHT22;6054;50.966;7.094;2023-04-01T11:14:42;17.30;62.60
11989;DHT22;6054;50.966;7.094;2023-04-01T11:17:33;17.40;62.40
11989;DHT22;6054;50.966;7.094;2023-04-01T11:20:28;17.40;62.00
11989;DHT22;6054;50.966;7.094;2023-04-01T11:23:21;17.40;62.20
11989;DHT22;6054;50.966;7.094;2023-04-01T11:26:12;17.40;62.20
11989;DHT22;6054;50.966;7.094;2023-04-01T11:29:00;17.40;62.10
11989;DHT22;6054;50.966;7.094;2023-04-01T11:31:39;17.40;62.10
11989;DHT22;6054;50.966;7.094;2023-04-01T11:34:19;17.40;62.20
11989;DHT22;6054;50.966;7.094;2023-04-01T11:36:56;17.40;62.20
11989;DHT22;6054;50.966;7.094;2023-04-01T11:39:33;17.40;62.10
11989;DHT22;6054;50.966;7.094;2023-04-01T11:42:14;17.40;62.00
11989;DHT22;6054;50.966;7.094;2023-04-01T11:44:49;17.40;62.10
11989;DHT22;6054;50.966;7.094;2023-04-01T11:47:48;17.50;62.00
11989;DHT22;6054;50.966;7.094;2023-04-01T11:50:26;17.60;62.50
11989;DHT22;6054;50.966;7.094;2023-04-01T11:53:10;17.50;62.50
11989;DHT22;6054;50.966;7.094;2023-04-01T11:55:50;17.50;61.90
11989;DHT22;6054;50.966;7.094;2023-04-01T11:58:41;17.50;61.70
11989;DHT22;6054;50.966;7.094;2023-04-01T12:01:18;17.50;61.60
11989;DHT22;6054;50.966;7.094;2023-04-01T12:04:00;17.60;62.50
11989;DHT22;6054;50.966;7.094;2023-04-01T12:06:38;17.60;62.60
11989;DHT22;6054;50.966;7.094;2023-04-01T12:09:12;17.60;62.50
11989;DHT22;6054;50.966;7.094;2023-04-01T12:11:50;17.70;62.40
11989;DHT22;6054;50.966;7.094;2023-04-01T12:14:23;17.70;62.20
11989;DHT22;6054;50.966;7.094;2023-04-01T12:17:02;17.80;62.20
11989;DHT22;6054;50.966;7.094;2023-04-01T12:19:40;17.80;62.00
11989;DHT22;6054;50.966;7.094;2023-04-01T12:22:30;17.80;62.20
11989;DHT22;6054;50.966;7.094;2023-04-01T12:25:13;17.90;62.60
11989;DHT22;6054;50.966;7.094;2023-04-01T12:27:50;17.90;62.60
11989;DHT22;6054;50.966;7.094;2023-04-01T12:30:55;18.00;63.10
11989;DHT22;6054;50.966;7.094;2023-04-01T12:36:46;18.10;62.00
11989;DHT22;6054;50.966;7.094;2023-04-01T12:39:33;18.10;61.70
11989;DHT22;6054;50.966;7.094;2023-04-01T12:42:07;18.10;61.10
11989;DHT22;6054;50.966;7.094;2023-04-01T12:44:50;18.10;61.10
11989;DHT22;6054;50.966;7.094;2023-04-01T12:47:33;18.10;61.00
11989;DHT22;6054;50.966;7.094;2023-04-01T12:50:26;18.40;60.90
11989;DHT22;6054;50.966;7.094;2023-04-01T12:53:06;18.10;60.40
11989;DHT22;6054;50.966;7.094;2023-04-01T12:55:38;18.10;60.00
11989;DHT22;6054;50.966;7.094;2023-04-01T12:58:45;18.40;60.50
11989;DHT22;6054;50.966;7.094;2023-04-01T13:01:45;18.10;60.40
11989;DHT22;6054;50.966;7.094;2023-04-01T13:04:47;18.20;61.00
11989;DHT22;6054;50.966;7.094;2023-04-01T13:10:25;18.20;60.60
11989;DHT22;6054;50.966;7.094;2023-04-01T13:15:54;18.20;59.90
11989;DHT22;6054;50.966;7.094;2023-04-01T13:18:31;18.20;59.90
11989;DHT22;6054;50.966;7.094;2023-04-01T13:21:08;18.20;59.80
11989;DHT22;6054;50.966;7.094;2023-04-01T13:23:47;18.20;59.40
11989;DHT22;6054;50.966;7.094;2023-04-01T13:26:22;18.40;59.00
11989;DHT22;6054;50.966;7.094;2023-04-01T13:28:56;18.20;59.30
11989;DHT22;6054;50.966;7.094;2023-04-01T13:31:33;18.20;59.20
11989;DHT22;6054;50.966;7.094;2023-04-01T13:34:13;18.50;59.10
11989;DHT22;6054;50.966;7.094;2023-04-01T13:36:51;18.50;59.30
11989;DHT22;6054;50.966;7.094;2023-04-01T13:39:30;18.30;59.20
11989;DHT22;6054;50.966;7.094;2023-04-01T13:42:10;18.20;59.10
11989;DHT22;6054;50.966;7.094;2023-04-01T13:44:43;18.20;59.20
11989;DHT22;6054;50.966;7.094;2023-04-01T13:47:30;18.20;58.90
11989;DHT22;6054;50.966;7.094;2023-04-01T13:50:21;18.20;59.20
11989;DHT22;6054;50.966;7.094;2023-04-01T13:53:10;18.20;59.00
11989;DHT22;6054;50.966;7.094;2023-04-01T13:55:52;18.20;58.70
11989;DHT22;6054;50.966;7.094;2023-04-01T13:58:43;18.20;58.90
11989;DHT22;6054;50.966;7.094;2023-04-01T14:01:15;18.20;58.90
11989;DHT22;6054;50.966;7.094;2023-04-01T14:04:09;18.20;58.60
11989;DHT22;6054;50.966;7.094;2023-04-01T14:06:54;18.20;58.80
11989;DHT22;6054;50.966;7.094;2023-04-01T14:09:44;18.20;58.70
11989;DHT22;6054;50.966;7.094;2023-04-01T14:12:20;18.10;58.80
11989;DHT22;6054;50.966;7.094;2023-04-01T14:15:07;18.10;58.80
11989;DHT22;6054;50.966;7.094;2023-04-01T14:17:52;18.00;59.00
11989;DHT22;6054;50.966;7.094;2023-04-01T14:20:34;18.00;59.00
11989;DHT22;6054;50.966;7.094;2023-04-01T14:23:13;18.00;59.10
11989;DHT22;6054;50.966;7.094;2023-04-01T14:26:10;17.90;59.30
11989;DHT22;6054;50.966;7.094;2023-04-01T14:28:46;17.90;59.80
11989;DHT22;6054;50.966;7.094;2023-04-01T14:31:29;18.10;60.10
11989;DHT22;6054;50.966;7.094;2023-04-01T14:34:04;17.90;60.10
11989;DHT22;6054;50.966;7.094;2023-04-01T14:36:43;17.90;60.10
11989;DHT22;6054;50.966;7.094;2023-04-01T14:39:38;17.90;60.20
11989;DHT22;6054;50.966;7.094;2023-04-01T14:42:23;17.90;60.40
11989;DHT22;6054;50.966;7.094;2023-04-01T14:45:06;17.90;60.40
11989;DHT22;6054;50.966;7.094;2023-04-01T14:47:48;17.90;61.20
11989;DHT22;6054;50.966;7.094;2023-04-01T14:50:18;17.90;60.70
11989;DHT22;6054;50.966;7.094;2023-04-01T14:52:56;18.20;60.70
11989;DHT22;6054;50.966;7.094;2023-04-01T14:55:31;17.90;60.70
11989;DHT22;6054;50.966;7.094;2023-04-01T14:58:10;17.90;60.80
11989;DHT22;6054;50.966;7.094;2023-04-01T15:00:58;17.90;60.90
11989;DHT22;6054;50.966;7.094;2023-04-01T15:03:30;17.90;61.10
11989;DHT22;6054;50.966;7.094;2023-04-01T15:06:27;17.90;61.10
11989;DHT22;6054;50.966;7.094;2023-04-01T15:09:02;17.90;61.20
11989;DHT22;6054;50.966;7.094;2023-04-01T15:11:44;17.90;61.20
11989;DHT22;6054;50.966;7.094;2023-04-01T15:14:26;17.90;61.20
11989;DHT22;6054;50.966;7.094;2023-04-01T15:17:04;17.90;61.30
11989;DHT22;6054;50.966;7.094;2023-04-01T15:19:54;17.90;61.40
11989;DHT22;6054;50.966;7.094;2023-04-01T15:22:32;17.90;61.00
11989;DHT22;6054;50.966;7.094;2023-04-01T15:25:31;17.90;61.10
11989;DHT22;6054;50.966;7.094;2023-04-01T15:28:05;17.90;61.30
11989;DHT22;6054;50.966;7.094;2023-04-01T15:30:44;17.90;61.30
11989;DHT22;6054;50.966;7.094;2023-04-01T15:33:24;17.90;61.20
11989;DHT22;6054;50.966;7.094;2023-04-01T15:35:59;17.90;61.40
11989;DHT22;6054;50.966;7.094;2023-04-01T15:38:33;17.90;61.50
11989;DHT22;6054;50.966;7.094;2023-04-01T15:41:07;17.90;61.40
11989;DHT22;6054;50.966;7.094;2023-04-01T15:43:41;17.90;60.80
11989;DHT22;6054;50.966;7.094;2023-04-01T15:46:20;17.90;60.70
11989;DHT22;6054;50.966;7.094;2023-04-01T15:48:57;17.80;60.90
11989;DHT22;6054;50.966;7.094;2023-04-01T15:52:03;17.80;60.90
11989;DHT22;6054;50.966;7.094;2023-04-01T15:57:38;17.80;61.10
11989;DHT22;6054;50.966;7.094;2023-04-01T16:00:18;17.80;61.40
11989;DHT22;6054;50.966;7.094;2023-04-01T16:02:48;17.80;61.20
11989;DHT22;6054;50.966;7.094;2023-04-01T16:05:28;18.00;61.30
11989;DHT22;6054;50.966;7.094;2023-04-01T16:08:14;17.80;61.00
11989;DHT22;6054;50.966;7.094;2023-04-01T16:10:55;17.80;61.00
11989;DHT22;6054;50.966;7.094;2023-04-01T16:13:35;17.80;61.00
11989;DHT22;6054;50.966;7.094;2023-04-01T16:16:11;17.80;60.80
11989;DHT22;6054;50.966;7.094;2023-04-01T16:19:04;17.80;60.80
11989;DHT22;6054;50.966;7.094;2023-04-01T16:21:41;17.80;60.90
11989;DHT22;6054;50.966;7.094;2023-04-01T16:24:17;17.80;61.20
11989;DHT22;6054;50.966;7.094;2023-04-01T16:26:50;17.80;61.10
11989;DHT22;6054;50.966;7.094;2023-04-01T16:29:26;17.80;61.30
11989;DHT22;6054;50.966;7.094;2023-04-01T16:31:57;17.80;61.30
11989;DHT22;6054;50.966;7.094;2023-04-01T16:34:30;17.80;61.80
11989;DHT22;6054;50.966;7.094;2023-04-01T16:37:05;17.80;60.90
11989;DHT22;6054;50.966;7.094;2023-04-01T16:39:41;17.90;60.60
11989;DHT22;6054;50.966;7.094;2023-04-01T16:42:34;17.90;60.70
11989;DHT22;6054;50.966;7.094;2023-04-01T16:45:15;17.80;60.80
11989;DHT22;6054;50.966;7.094;2023-04-01T16:47:48;17.80;60.60
11989;DHT22;6054;50.966;7.094;2023-04-01T16:50:19;17.70;60.30
11989;DHT22;6054;50.966;7.094;2023-04-01T16:52:57;17.70;60.30
11989;DHT22;6054;50.966;7.094;2023-04-01T16:55:35;17.60;60.50
11989;DHT22;6054;50.966;7.094;2023-04-01T16:58:02;17.70;60.60
11989;DHT22;6054;50.966;7.094;2023-04-01T17:00:37;17.60;60.10
11989;DHT22;6054;50.966;7.094;2023-04-01T17:03:11;17.60;60.60
11989;DHT22;6054;50.966;7.094;2023-04-01T17:05:52;17.50;60.70
11989;DHT22;6054;50.966;7.094;2023-04-01T17:08:30;17.50;60.80
11989;DHT22;6054;50.966;7.094;2023-04-01T17:11:07;17.50;60.90
11989;DHT22;6054;50.966;7.094;2023-04-01T17:13:41;17.50;61.00
11989;DHT22;6054;50.966;7.094;2023-04-01T17:16:24;17.40;61.20
11989;DHT22;6054;50.966;7.094;2023-04-01T17:18:59;17.40;61.30
11989;DHT22;6054;50.966;7.094;2023-04-01T17:21:44;17.40;61.30
11989;DHT22;6054;50.966;7.094;2023-04-01T17:24:27;17.40;61.50
11989;DHT22;6054;50.966;7.094;2023-04-01T17:27:02;17.40;61.40
11989;DHT22;6054;50.966;7.094;2023-04-01T17:29:37;17.40;61.60
11989;DHT22;6054;50.966;7.094;2023-04-01T17:32:11;17.40;61.60
11989;DHT22;6054;50.966;7.094;2023-04-01T17:34:54;17.30;61.40
11989;DHT22;6054;50.966;7.094;2023-04-01T17:37:38;17.30;61.60
11989;DHT22;6054;50.966;7.094;2023-04-01T17:40:25;17.30;61.40
11989;DHT22;6054;50.966;7.094;2023-04-01T17:43:00;17.30;61.50
11989;DHT22;6054;50.966;7.094;2023-04-01T17:45:36;17.30;61.60
11989;DHT22;6054;50.966;7.094;2023-04-01T17:48:15;17.30;61.70